Time;durP1;ratioP1;P1;durP2;ratioP2;P2;SDS_P1;SDS_P2;PMS_P1;PMS_P2;Temp;Humidity;BMP_temperature;BMP_pressure;BME280_temperature;BME280_humidity;BME280_pressure;Samples;Min_cycle;Max_cycle;Signal;HPM_P1;HPM_P2
2021/06/02 00:00:45;;;;;;;8.48;4.90;;;;;;;;;;8308614;28;20493;-64
2021/06/02 00:04:53;;;;;;;10.82;5.82;;;;;;;;;;8321934;28;20489;-65
2021/06/02 00:08:58;;;;;;;8.35;4.95;;;;;;;;;;8323090;28;20389;-65
2021/06/02 00:13:03;;;;;;;11.05;4.47;;;;;;;;;;8322806;28;20450;-65
2021/06/02 00:17:11;;;;;;;14.15;7.18;;;;;;;;;;8323522;28;20443;-65
2021/06/02 00:21:16;;;;;;;9.77;4.00;;;;;;;;;;8324170;28;20383;-65
2021/06/02 00:25:21;;;;;;;8.85;4.30;;;;;;;;;;8323148;28;20401;-65
2021/06/02 00:29:35;;;;;;;11.63;4.50;;;;;;;;;;8325553;28;20356;-69
2021/06/02 00:33:40;;;;;;;9.35;4.78;;;;;;;;;;8322401;28;20405;-65
2021/06/02 00:37:47;;;;;;;8.38;4.18;;;;;;;;;;8323198;28;20367;-65
2021/06/02 00:41:54;;;;;;;7.55;3.95;;;;;;;;;;8306267;28;20370;-65
2021/06/02 00:46:00;;;;;;;7.55;4.10;;;;;;;;;;8324296;28;20471;-65
2021/06/02 00:50:06;;;;;;;6.38;4.20;;;;;;;;;;8322478;28;20356;-65
2021/06/02 00:54:11;;;;;;;9.88;5.30;;;;;;;;;;8306310;28;20084;-65
2021/06/02 00:59:03;;;;;;;24.10;10.68;;;;;;;;;;8322891;28;20466;-66
2021/06/02 01:03:09;;;;;;;9.73;4.97;;;;;;;;;;8311414;28;20511;-66
2021/06/02 01:07:15;;;;;;;25.45;12.13;;;;;;;;;;8324298;28;20431;-65
2021/06/02 01:11:27;;;;;;;7.60;4.45;;;;;;;;;;8323017;28;20377;-65
2021/06/02 01:15:32;;;;;;;7.28;4.00;;;;;;;;;;8324263;28;20074;-65
2021/06/02 01:19:37;;;;;;;7.00;3.92;;;;;;;;;;8325602;28;20351;-65
2021/06/02 01:23:43;;;;;;;7.72;3.88;;;;;;;;;;8311513;28;20451;-65
2021/06/02 01:27:48;;;;;;;5.38;3.50;;;;;;;;;;8310844;28;20457;-67
2021/06/02 01:32:11;;;;;;;7.18;4.22;;;;;;;;;;8330144;28;20374;-65
2021/06/02 01:36:34;;;;;;;6.13;3.78;;;;;;;;;;8328529;28;20052;-65
2021/06/02 01:41:07;;;;;;;6.90;4.10;;;;;;;;;;8313451;28;20383;-66
2021/06/02 01:45:30;;;;;;;5.80;3.50;;;;;;;;;;8327720;28;20351;-65
2021/06/02 01:50:14;;;;;;;10.00;5.45;;;;;;;;;;8327522;28;20055;-65
2021/06/02 01:55:09;;;;;;;10.05;4.47;;;;;;;;;;8328028;28;20071;-65
2021/06/02 01:59:54;;;;;;;7.90;4.20;;;;;;;;;;8330092;28;20044;-65
2021/06/02 02:04:14;;;;;;;10.75;4.63;;;;;;;;;;8327271;28;20378;-65
2021/06/02 02:08:43;;;;;;;9.82;4.70;;;;;;;;;;8329975;28;20443;-65
2021/06/02 02:12:59;;;;;;;10.20;4.50;;;;;;;;;;8308281;28;20461;-64
2021/06/02 02:17:24;;;;;;;8.63;3.92;;;;;;;;;;8328712;28;20372;-65
2021/06/02 02:21:57;;;;;;;11.45;5.82;;;;;;;;;;8309473;28;20470;-65
2021/06/02 02:26:41;;;;;;;5.65;3.65;;;;;;;;;;8326531;28;20467;-66
2021/06/02 02:31:25;;;;;;;11.52;5.63;;;;;;;;;;8312143;28;20355;-65
2021/06/02 02:35:55;;;;;;;8.05;5.78;;;;;;;;;;8326325;28;20467;-65
2021/06/02 02:40:11;;;;;;;13.75;6.03;;;;;;;;;;8309464;28;20409;-65
2021/06/02 02:44:53;;;;;;;9.27;4.88;;;;;;;;;;8326311;28;20064;-65
2021/06/02 02:49:45;;;;;;;10.77;4.80;;;;;;;;;;8326134;28;20493;-66
2021/06/02 02:54:22;;;;;;;7.53;4.22;;;;;;;;;;8326004;28;20426;-65
2021/06/02 02:58:54;;;;;;;12.70;6.55;;;;;;;;;;8324962;28;20074;-65
2021/06/02 03:03:46;;;;;;;9.35;4.45;;;;;;;;;;8307037;28;20047;-65
2021/06/02 03:08:29;;;;;;;11.25;5.72;;;;;;;;;;8309477;28;20324;-65
2021/06/02 03:12:46;;;;;;;8.30;4.18;;;;;;;;;;8308056;28;20375;-65
2021/06/02 03:17:07;;;;;;;7.57;4.25;;;;;;;;;;8324978;28;20474;-65
2021/06/02 03:21:58;;;;;;;6.95;4.40;;;;;;;;;;8308862;28;20419;-65
2021/06/02 03:26:17;;;;;;;14.27;5.55;;;;;;;;;;8325599;28;20463;-65
2021/06/02 03:30:34;;;;;;;19.48;11.00;;;;;;;;;;8307301;28;20114;-65
2021/06/02 03:35:24;;;;;;;8.05;4.20;;;;;;;;;;8324903;28;20344;-65
2021/06/02 03:39:49;;;;;;;11.27;3.95;;;;;;;;;;8324030;28;20044;-64
2021/06/02 03:44:22;;;;;;;11.93;6.30;;;;;;;;;;8306922;28;20378;-65
2021/06/02 03:48:57;;;;;;;7.40;4.80;;;;;;;;;;8309111;28;20358;-65
2021/06/02 03:53:20;;;;;;;8.05;4.22;;;;;;;;;;8323391;28;20480;-65
2021/06/02 03:57:35;;;;;;;6.85;3.58;;;;;;;;;;8324988;28;20461;-65
2021/06/02 04:01:53;;;;;;;5.63;3.60;;;;;;;;;;8325182;28;20481;-65
2021/06/02 04:06:20;;;;;;;7.95;3.40;;;;;;;;;;8307164;28;20367;-65
2021/06/02 04:10:56;;;;;;;5.82;3.72;;;;;;;;;;8306623;28;20485;-66
2021/06/02 04:15:06;;;;;;;7.60;3.83;;;;;;;;;;8308214;28;20382;-65
2021/06/02 04:19:16;;;;;;;10.82;4.75;;;;;;;;;;8322787;28;20409;-65
2021/06/02 04:23:22;;;;;;;10.52;4.93;;;;;;;;;;8323133;28;20384;-65
2021/06/02 04:27:27;;;;;;;12.55;4.03;;;;;;;;;;8307196;28;20367;-65
2021/06/02 04:31:32;;;;;;;8.35;3.92;;;;;;;;;;8323401;28;20378;-65
2021/06/02 04:35:40;;;;;;;6.60;3.63;;;;;;;;;;8323734;28;20137;-66
2021/06/02 04:39:46;;;;;;;7.15;3.40;;;;;;;;;;8306346;28;20394;-65
2021/06/02 04:43:53;;;;;;;8.07;3.33;;;;;;;;;;8305639;28;20333;-66
2021/06/02 04:48:00;;;;;;;10.75;3.83;;;;;;;;;;8323351;28;20412;-66
2021/06/02 04:52:32;;;;;;;;;;;;;;;;;;8306917;28;20453;-66
2021/06/02 04:57:04;;;;;;;5.00;3.03;;;;;;;;;;8320269;28;19920;-65
2021/06/02 05:01:36;;;;;;;8.57;2.92;;;;;;;;;;8328809;28;20382;-66
2021/06/02 05:06:03;;;;;;;4.07;2.95;;;;;;;;;;8330059;28;20379;-66
2021/06/02 05:10:35;;;;;;;3.35;2.38;;;;;;;;;;8328999;28;20044;-66
2021/06/02 05:15:27;;;;;;;6.55;2.88;;;;;;;;;;8329398;28;20378;-66
2021/06/02 05:20:24;;;;;;;6.65;2.58;;;;;;;;;;8328873;28;20459;-68
2021/06/02 05:24:47;;;;;;;8.18;2.92;;;;;;;;;;8327836;28;20368;-66
2021/06/02 05:29:31;;;;;;;5.72;2.92;;;;;;;;;;8329088;28;20501;-68
2021/06/02 05:33:38;;;;;;;8.55;3.55;;;;;;;;;;8328415;28;20397;-66
2021/06/02 05:38:17;;;;;;;3.47;2.45;;;;;;;;;;8329544;28;20359;-66
2021/06/02 05:42:31;;;;;;;3.80;2.35;;;;;;;;;;8327959;28;20048;-66
2021/06/02 05:47:22;;;;;;;6.22;2.63;;;;;;;;;;8312402;28;20387;-65
2021/06/02 05:52:08;;;;;;;5.28;2.47;;;;;;;;;;8328191;28;20455;-67
2021/06/02 05:57:08;;;;;;;3.92;2.22;;;;;;;;;;8329218;28;20374;-68
2021/06/02 06:01:32;;;;;;;5.28;1.95;;;;;;;;;;8332010;28;20071;-67
2021/06/02 06:06:02;;;;;;;4.63;1.93;;;;;;;;;;8330620;28;20391;-66
2021/06/02 06:10:59;;;;;;;3.15;1.85;;;;;;;;;;8330471;28;20320;-66
2021/06/02 06:15:41;;;;;;;;;;;;;;;;;;8316605;28;20383;-67
2021/06/02 06:20:10;;;;;;;4.72;1.90;;;;;;;;;;8328856;28;20315;-67
2021/06/02 06:24:52;;;;;;;2.38;1.55;;;;;;;;;;8327676;28;20373;-67
2021/06/02 06:29:10;;;;;;;2.72;1.60;;;;;;;;;;8326843;28;20480;-66
2021/06/02 06:33:16;;;;;;;4.75;1.60;;;;;;;;;;8327935;28;20386;-66
2021/06/02 06:37:22;;;;;;;2.95;1.20;;;;;;;;;;8309887;28;20070;-67
2021/06/02 06:41:30;;;;;;;4.35;1.58;;;;;;;;;;8309560;28;20383;-66
2021/06/02 06:45:38;;;;;;;;;;;;;;;;;;8327133;28;20354;-67
2021/06/02 06:49:48;;;;;;;1.92;1.10;;;;;;;;;;8312581;28;20004;-67
2021/06/02 06:53:58;;;;;;;2.40;1.02;;;;;;;;;;8308388;28;20512;-66
2021/06/02 06:58:06;;;;;;;1.83;1.20;;;;;;;;;;8308153;28;20350;-66
2021/06/02 07:02:10;;;;;;;;;;;;;;;;;;8307359;28;20478;-68
2021/06/02 07:06:16;;;;;;;5.65;0.90;;;;;;;;;;8325265;28;20235;-67
2021/06/02 07:10:23;;;;;;;6.18;1.02;;;;;;;;;;8307423;28;20382;-67
2021/06/02 07:14:29;;;;;;;2.10;0.95;;;;;;;;;;8324477;28;20469;-67
2021/06/02 07:18:36;;;;;;;2.92;1.08;;;;;;;;;;8306887;28;20366;-66
2021/06/02 07:22:45;;;;;;;2.08;1.10;;;;;;;;;;8307921;28;20412;-68
2021/06/02 07:26:51;;;;;;;6.10;1.58;;;;;;;;;;8325924;28;20370;-67
2021/06/02 07:30:58;;;;;;;1.45;1.15;;;;;;;;;;8325967;28;20446;-67
2021/06/02 07:35:02;;;;;;;2.60;1.00;;;;;;;;;;8324021;28;20383;-66
2021/06/02 07:39:07;;;;;;;3.30;1.30;;;;;;;;;;8324576;28;20369;-67
2021/06/02 07:43:11;;;;;;;2.50;0.85;;;;;;;;;;8324010;28;20110;-67
2021/06/02 07:47:16;;;;;;;3.33;0.90;;;;;;;;;;8324546;28;20347;-66
2021/06/02 07:51:32;;;;;;;0.77;0.50;;;;;;;;;;8309973;28;20459;-67
2021/06/02 07:55:37;;;;;;;3.38;0.95;;;;;;;;;;8326542;28;20071;-67
2021/06/02 07:59:42;;;;;;;2.05;1.00;;;;;;;;;;8326585;28;20462;-66
2021/06/02 08:03:47;;;;;;;5.75;0.90;;;;;;;;;;8324984;28;20470;-67
2021/06/02 08:07:52;;;;;;;5.72;1.17;;;;;;;;;;8327166;28;20370;-67
2021/06/02 08:11:57;;;;;;;3.05;1.08;;;;;;;;;;8325806;28;20650;-67
2021/06/02 08:16:02;;;;;;;2.42;1.10;;;;;;;;;;8325938;28;20382;-66
2021/06/02 08:20:10;;;;;;;2.25;1.45;;;;;;;;;;8327095;28;20486;-67
2021/06/02 08:24:15;;;;;;;2.22;1.13;;;;;;;;;;8307015;28;20443;-65
2021/06/02 08:28:20;;;;;;;4.65;1.13;;;;;;;;;;8324031;28;20052;-67
2021/06/02 08:32:25;;;;;;;3.75;1.00;;;;;;;;;;8307618;28;20371;-66
2021/06/02 08:36:33;;;;;;;8.88;1.00;;;;;;;;;;8323863;28;20374;-66
2021/06/02 08:40:38;;;;;;;3.58;1.20;;;;;;;;;;8326063;28;20052;-67
2021/06/02 08:44:43;;;;;;;1.77;1.20;;;;;;;;;;8323250;28;20352;-67
2021/06/02 08:48:49;;;;;;;3.90;0.90;;;;;;;;;;8322277;28;20375;-67
2021/06/02 08:53:00;;;;;;;2.50;1.03;;;;;;;;;;8324525;28;20119;-66
2021/06/02 08:57:09;;;;;;;2.72;1.40;;;;;;;;;;8323597;28;20446;-67
2021/06/02 09:01:14;;;;;;;8.00;1.48;;;;;;;;;;8324630;28;20099;-67
2021/06/02 09:05:19;;;;;;;1.75;1.10;;;;;;;;;;8322878;28;20443;-67
2021/06/02 09:09:26;;;;;;;4.93;1.40;;;;;;;;;;8322747;28;20382;-67
2021/06/02 09:13:31;;;;;;;4.35;1.00;;;;;;;;;;8324186;28;20351;-67
2021/06/02 09:17:57;;;;;;;2.88;0.88;;;;;;;;;;8304182;28;20370;-67
2021/06/02 09:22:33;;;;;;;3.40;1.20;;;;;;;;;;8319716;28;20385;-66
2021/06/02 09:26:38;;;;;;;1.40;1.00;;;;;;;;;;8309878;28;20078;-67
2021/06/02 09:30:42;;;;;;;3.67;0.90;;;;;;;;;;8300707;28;20475;-66
2021/06/02 09:34:58;;;;;;;2.13;1.30;;;;;;;;;;8285951;28;20398;-66
2021/06/02 09:39:07;;;;;;;2.25;1.00;;;;;;;;;;8288133;28;20048;-67
2021/06/02 09:43:12;;;;;;;3.55;1.75;;;;;;;;;;8294361;28;20573;-68
2021/06/02 09:47:17;;;;;;;6.50;1.35;;;;;;;;;;8295942;28;20452;-66
2021/06/02 09:51:48;;;;;;;2.92;1.40;;;;;;;;;;8295851;28;20387;-66
2021/06/02 09:55:53;;;;;;;2.10;1.02;;;;;;;;;;8291160;28;20356;-66
2021/06/02 10:00:03;;;;;;;1.55;1.10;;;;;;;;;;8290262;28;20374;-68
2021/06/02 10:04:14;;;;;;;2.63;1.33;;;;;;;;;;8293265;28;20048;-67
2021/06/02 10:08:30;;;;;;;8.73;1.10;;;;;;;;;;8292985;28;20452;-67
2021/06/02 10:12:35;;;;;;;5.30;1.17;;;;;;;;;;8295813;28;20366;-68
2021/06/02 10:16:45;;;;;;;19.48;9.20;;;;;;;;;;8298218;28;20368;-67
2021/06/02 10:21:16;;;;;;;6.05;2.90;;;;;;;;;;8297181;28;20472;-67
2021/06/02 10:25:23;;;;;;;1.65;0.98;;;;;;;;;;8292658;28;20426;-67
2021/06/02 10:29:28;;;;;;;2.60;1.20;;;;;;;;;;8295028;28;20365;-66
2021/06/02 10:33:34;;;;;;;1.60;0.90;;;;;;;;;;8294401;28;20448;-67
2021/06/02 10:37:44;;;;;;;2.47;1.20;;;;;;;;;;8293239;28;20394;-67
2021/06/02 10:41:57;;;;;;;2.53;1.17;;;;;;;;;;8276030;28;20390;-66
2021/06/02 10:46:08;;;;;;;4.22;0.93;;;;;;;;;;8293059;28;20505;-67
2021/06/02 10:50:31;;;;;;;3.08;1.10;;;;;;;;;;8276031;28;20379;-67
2021/06/02 10:54:40;;;;;;;1.60;1.00;;;;;;;;;;8293632;28;20549;-66
2021/06/02 10:58:47;;;;;;;2.85;1.30;;;;;;;;;;8298714;28;20053;-67
2021/06/02 11:03:22;;;;;;;8.40;1.50;;;;;;;;;;8294080;28;20356;-66
2021/06/02 11:07:31;;;;;;;2.63;1.10;;;;;;;;;;8292318;28;20333;-67
2021/06/02 11:11:41;;;;;;;7.63;1.65;;;;;;;;;;8292015;28;20503;-67
2021/06/02 11:15:48;;;;;;;5.55;1.15;;;;;;;;;;8293165;28;20364;-67
2021/06/02 11:19:55;;;;;;;5.68;2.30;;;;;;;;;;8291099;28;20463;-67
2021/06/02 11:24:00;;;;;;;5.40;2.55;;;;;;;;;;8291462;28;20071;-67
2021/06/02 11:28:06;;;;;;;4.10;1.80;;;;;;;;;;8291454;28;20543;-67
2021/06/02 11:32:27;;;;;;;2.25;1.40;;;;;;;;;;8258828;28;20497;-67
2021/06/02 11:36:32;;;;;;;1.80;1.42;;;;;;;;;;8290756;28;20598;-67
2021/06/02 11:40:37;;;;;;;3.88;1.50;;;;;;;;;;8292703;28;20671;-67
2021/06/02 11:44:42;;;;;;;2.65;1.33;;;;;;;;;;8286885;28;20493;-67
2021/06/02 11:48:47;;;;;;;3.63;1.40;;;;;;;;;;8289130;28;20409;-67
2021/06/02 11:52:58;;;;;;;5.03;1.23;;;;;;;;;;8291828;28;20444;-67
2021/06/02 11:57:31;;;;;;;4.82;1.42;;;;;;;;;;8290682;28;20376;-68
2021/06/02 12:01:37;;;;;;;4.78;2.40;;;;;;;;;;8291339;28;20056;-67
2021/06/02 12:05:43;;;;;;;4.95;2.47;;;;;;;;;;8289503;28;20478;-67
2021/06/02 12:09:50;;;;;;;3.13;1.38;;;;;;;;;;8290681;28;20497;-67
2021/06/02 12:13:55;;;;;;;5.60;1.23;;;;;;;;;;8288884;28;20366;-67
2021/06/02 12:18:00;;;;;;;3.33;1.20;;;;;;;;;;8289333;28;20509;-67
2021/06/02 12:22:19;;;;;;;2.75;1.48;;;;;;;;;;8289877;28;20631;-66
2021/06/02 12:26:42;;;;;;;4.15;1.90;;;;;;;;;;8271028;28;20448;-67
2021/06/02 12:30:47;;;;;;;5.30;1.90;;;;;;;;;;8290285;28;20473;-67
2021/06/02 12:34:52;;;;;;;4.05;2.22;;;;;;;;;;8324979;28;20383;-66
2021/06/02 12:38:57;;;;;;;3.95;1.27;;;;;;;;;;8324656;28;20493;-67
2021/06/02 12:43:10;;;;;;;7.88;1.52;;;;;;;;;;8307468;28;20470;-66
2021/06/02 12:47:19;;;;;;;3.97;1.90;;;;;;;;;;8291706;28;20532;-67
2021/06/02 12:51:26;;;;;;;2.45;1.02;;;;;;;;;;8322272;28;20478;-67
2021/06/02 12:55:36;;;;;;;;;;;;;;;;;;8324110;28;20489;-66
2021/06/02 12:59:42;;;;;;;5.00;1.30;;;;;;;;;;8322203;28;20315;-67
2021/06/02 13:03:54;;;;;;;1.95;1.00;;;;;;;;;;8303932;28;20367;-67
2021/06/02 13:08:08;;;;;;;3.42;1.52;;;;;;;;;;8304534;28;20489;-67
2021/06/02 13:12:19;;;;;;;2.05;1.25;;;;;;;;;;8323984;28;20447;-66
2021/06/02 13:16:24;;;;;;;2.25;1.10;;;;;;;;;;8326648;28;20466;-66
2021/06/02 13:20:36;;;;;;;3.25;1.50;;;;;;;;;;8328625;28;20462;-66
2021/06/02 13:24:40;;;;;;;2.70;1.23;;;;;;;;;;8331356;28;20490;-66
2021/06/02 13:28:54;;;;;;;9.93;2.35;;;;;;;;;;8328918;28;20062;-66
2021/06/02 13:32:59;;;;;;;2.15;0.98;;;;;;;;;;8310299;28;20361;-67
2021/06/02 13:37:22;;;;;;;1.10;0.80;;;;;;;;;;8295132;28;20463;-67
2021/06/02 13:41:27;;;;;;;8.73;1.10;;;;;;;;;;8296025;28;20448;-66
2021/06/02 13:45:55;;;;;;;2.65;1.05;;;;;;;;;;8295445;28;20075;-67
2021/06/02 13:50:16;;;;;;;2.78;1.17;;;;;;;;;;8278256;28;20048;-66
2021/06/02 13:54:34;;;;;;;2.08;1.17;;;;;;;;;;8294040;28;20458;-67
2021/06/02 13:58:40;;;;;;;3.15;1.20;;;;;;;;;;8293123;28;20379;-66
2021/06/02 14:02:44;;;;;;;2.47;0.90;;;;;;;;;;8294752;28;20468;-66
2021/06/02 14:06:50;;;;;;;3.03;1.15;;;;;;;;;;8293772;28;20048;-66
2021/06/02 14:10:55;;;;;;;4.28;1.25;;;;;;;;;;8293182;28;20536;-67
2021/06/02 14:15:00;;;;;;;3.33;0.95;;;;;;;;;;8293047;28;20487;-67
2021/06/02 14:19:05;;;;;;;2.63;0.90;;;;;;;;;;8295141;28;20387;-66
2021/06/02 14:23:10;;;;;;;3.10;1.10;;;;;;;;;;8295427;28;20387;-66
2021/06/02 14:27:15;;;;;;;3.45;0.90;;;;;;;;;;8292379;28;20455;-66
2021/06/02 14:31:22;;;;;;;6.93;1.50;;;;;;;;;;8292994;28;20340;-67
2021/06/02 14:35:25;;;;;;;6.93;2.33;;;;;;;;;;8293427;28;20379;-66
2021/06/02 14:39:30;;;;;;;3.25;1.17;;;;;;;;;;8293071;28;20390;-66
2021/06/02 14:43:35;;;;;;;2.15;1.30;;;;;;;;;;8292622;28;20460;-66
2021/06/02 14:47:40;;;;;;;3.13;1.20;;;;;;;;;;8275598;28;20060;-66
2021/06/02 14:51:45;;;;;;;5.45;1.20;;;;;;;;;;8276679;28;20344;-66
2021/06/02 14:55:50;;;;;;;2.38;1.10;;;;;;;;;;8292687;28;20475;-67
2021/06/02 14:59:54;;;;;;;2.25;1.35;;;;;;;;;;8291952;28;20056;-67
2021/06/02 15:03:59;;;;;;;4.00;1.33;;;;;;;;;;8294516;28;20475;-67
2021/06/02 15:08:05;;;;;;;2.30;1.27;;;;;;;;;;8275214;28;20040;-66
2021/06/02 15:12:14;;;;;;;3.80;1.40;;;;;;;;;;8294351;28;20524;-67
2021/06/02 15:16:20;;;;;;;2.15;1.17;;;;;;;;;;8274339;28;20367;-67
2021/06/02 15:20:26;;;;;;;2.70;0.90;;;;;;;;;;8291761;28;20056;-65
2021/06/02 15:24:30;;;;;;;2.28;1.30;;;;;;;;;;8291618;28;20402;-66
2021/06/02 15:28:45;;;;;;;4.78;1.00;;;;;;;;;;8291937;28;20379;-66
2021/06/02 15:32:50;;;;;;;1.95;1.02;;;;;;;;;;8292147;28;20460;-66
2021/06/02 15:36:56;;;;;;;2.03;1.15;;;;;;;;;;8289187;28;20475;-65
2021/06/02 15:41:01;;;;;;;10.40;5.50;;;;;;;;;;8273506;28;20400;-66
2021/06/02 15:45:12;;;;;;;2.30;1.35;;;;;;;;;;8292967;28;20375;-66
2021/06/02 15:49:17;;;;;;;2.28;1.40;;;;;;;;;;8291316;28;20360;-67
2021/06/02 15:53:39;;;;;;;1.52;1.10;;;;;;;;;;8277460;28;20478;-67
2021/06/02 15:57:52;;;;;;;3.97;1.85;;;;;;;;;;8292505;28;20595;-67
2021/06/02 16:01:58;;;;;;;3.78;1.42;;;;;;;;;;8272847;28;20458;-67
2021/06/02 16:06:03;;;;;;;3.72;1.10;;;;;;;;;;8274067;28;20456;-66
2021/06/02 16:10:10;;;;;;;1.33;0.95;;;;;;;;;;8291244;28;20467;-65
2021/06/02 16:14:15;;;;;;;2.97;1.23;;;;;;;;;;8292483;28;20512;-66
2021/06/02 16:18:20;;;;;;;1.92;0.93;;;;;;;;;;8290273;28;20785;-67
2021/06/02 16:22:31;;;;;;;3.40;2.00;;;;;;;;;;8290488;28;20412;-68
2021/06/02 16:26:39;;;;;;;5.10;2.22;;;;;;;;;;8290396;28;20809;-66
2021/06/02 16:30:44;;;;;;;3.58;1.83;;;;;;;;;;8272529;28;20379;-66
2021/06/02 16:34:51;;;;;;;6.65;1.70;;;;;;;;;;8304234;28;20466;-67
2021/06/02 16:38:57;;;;;;;6.18;1.88;;;;;;;;;;8305157;28;20519;-65
2021/06/02 16:43:11;;;;;;;4.43;2.58;;;;;;;;;;8321824;28;20531;-66
2021/06/02 16:47:16;;;;;;;4.05;2.10;;;;;;;;;;8322308;28;20501;-66
2021/06/02 16:51:23;;;;;;;4.45;2.08;;;;;;;;;;8310949;28;20386;-65
2021/06/02 16:55:29;;;;;;;4.75;1.80;;;;;;;;;;8331698;28;20455;-66
2021/06/02 16:59:34;;;;;;;3.70;1.95;;;;;;;;;;8328674;28;20486;-66
2021/06/02 17:03:40;;;;;;;3.80;2.15;;;;;;;;;;8331156;28;20451;-66
2021/06/02 17:07:45;;;;;;;2.20;1.35;;;;;;;;;;8312534;28;20493;-66
2021/06/02 17:11:51;;;;;;;4.35;1.40;;;;;;;;;;8328677;28;20389;-65
2021/06/02 17:15:56;;;;;;;4.20;1.48;;;;;;;;;;8329331;28;20369;-66
2021/06/02 17:20:02;;;;;;;1.42;1.00;;;;;;;;;;8328123;28;20386;-66
2021/06/02 17:24:08;;;;;;;3.83;1.17;;;;;;;;;;8311303;28;20367;-69
2021/06/02 17:28:12;;;;;;;3.38;1.17;;;;;;;;;;8328228;28;20075;-66
2021/06/02 17:32:15;;;;;;;3.97;1.30;;;;;;;;;;8318220;28;20044;-66
2021/06/02 17:36:23;;;;;;;3.30;1.48;;;;;;;;;;8295576;28;20471;-66
2021/06/02 17:40:28;;;;;;;5.87;1.97;;;;;;;;;;8294403;28;20360;-66
2021/06/02 17:44:33;;;;;;;1.85;1.30;;;;;;;;;;8278077;28;20075;-65
2021/06/02 17:48:39;;;;;;;2.78;1.33;;;;;;;;;;8295467;28;20408;-65
2021/06/02 17:53:08;;;;;;;4.18;1.58;;;;;;;;;;8277097;28;20452;-65
2021/06/02 17:57:15;;;;;;;1.27;0.93;;;;;;;;;;8276430;28;20479;-65
2021/06/02 18:01:22;;;;;;;4.07;1.45;;;;;;;;;;8276902;28;20379;-65
2021/06/02 18:05:26;;;;;;;2.75;1.48;;;;;;;;;;8294347;28;20388;-65
2021/06/02 18:09:31;;;;;;;2.85;1.55;;;;;;;;;;8295369;28;20455;-64
2021/06/02 18:13:38;;;;;;;4.93;1.52;;;;;;;;;;8295349;28;20057;-65
2021/06/02 18:17:45;;;;;;;5.13;1.30;;;;;;;;;;8291896;28;20344;-65
2021/06/02 18:21:52;;;;;;;6.95;1.83;;;;;;;;;;8293591;28;20452;-64
2021/06/02 18:26:03;;;;;;;3.15;1.75;;;;;;;;;;8293928;28;20384;-64
2021/06/02 18:30:10;;;;;;;3.58;2.28;;;;;;;;;;8294587;28;20459;-65
2021/06/02 18:34:15;;;;;;;6.00;3.08;;;;;;;;;;8313464;28;20496;-66
2021/06/02 18:38:21;;;;;;;4.50;2.55;;;;;;;;;;8327634;28;20466;-66
2021/06/02 18:42:26;;;;;;;14.05;4.22;;;;;;;;;;8326737;28;20044;-66
2021/06/02 18:46:31;;;;;;;9.65;4.18;;;;;;;;;;8327846;28;20414;-65
2021/06/02 18:50:34;;;;;;;8.73;3.72;;;;;;;;;;8326840;28;20473;-65
2021/06/02 18:54:39;;;;;;;8.68;3.58;;;;;;;;;;8325532;28;20056;-65
2021/06/02 18:58:44;;;;;;;10.98;3.67;;;;;;;;;;8324584;28;20508;-66
2021/06/02 19:02:49;;;;;;;8.93;4.25;;;;;;;;;;8327033;28;20466;-65
2021/06/02 19:06:54;;;;;;;8.25;3.70;;;;;;;;;;8324511;28;20460;-65
2021/06/02 19:11:02;;;;;;;9.13;4.40;;;;;;;;;;8326808;28;20491;-65
2021/06/02 19:15:08;;;;;;;9.30;3.53;;;;;;;;;;8325513;28;20367;-65
2021/06/02 19:19:13;;;;;;;5.53;2.95;;;;;;;;;;8325599;28;20370;-65
2021/06/02 19:23:18;;;;;;;11.38;4.68;;;;;;;;;;8324050;28;20347;-65
2021/06/02 19:27:23;;;;;;;10.07;3.47;;;;;;;;;;8322564;28;20378;-65
2021/06/02 19:31:30;;;;;;;9.75;3.47;;;;;;;;;;8336519;28;20355;-65
2021/06/02 19:35:36;;;;;;;9.00;3.33;;;;;;;;;;8293457;28;20378;-65
2021/06/02 19:39:40;;;;;;;11.43;3.53;;;;;;;;;;8275526;28;20063;-65
2021/06/02 19:43:45;;;;;;;6.85;3.25;;;;;;;;;;8293217;28;20459;-65
2021/06/02 19:48:57;;;;;;;6.85;3.95;;;;;;;;;;8290565;28;20376;-65
2021/06/02 19:53:02;;;;;;;6.82;3.70;;;;;;;;;;8257401;28;20365;-65
2021/06/02 19:57:10;;;;;;;7.00;4.03;;;;;;;;;;8259456;28;20380;-65
2021/06/02 20:01:16;;;;;;;8.32;5.18;;;;;;;;;;8257620;28;20380;-65
2021/06/02 20:05:21;;;;;;;16.17;7.97;;;;;;;;;;8257298;28;20480;-65
2021/06/02 20:09:26;;;;;;;12.45;6.38;;;;;;;;;;8258842;28;20045;-65
2021/06/02 20:13:31;;;;;;;16.80;7.00;;;;;;;;;;8258406;28;20487;-65
2021/06/02 20:17:36;;;;;;;24.73;9.68;;;;;;;;;;8259119;28;20462;-65
2021/06/02 20:21:41;;;;;;;8.88;5.10;;;;;;;;;;8258136;28;20068;-65
2021/06/02 20:25:47;;;;;;;18.38;6.97;;;;;;;;;;8242487;28;20045;-65
2021/06/02 20:29:53;;;;;;;33.35;8.18;;;;;;;;;;8258012;28;20494;-65
2021/06/02 20:33:58;;;;;;;146.20;41.58;;;;;;;;;;8281383;28;20375;-66
2021/06/02 20:38:03;;;;;;;34.95;12.20;;;;;;;;;;8289809;28;20503;-64
2021/06/02 20:42:08;;;;;;;12.65;5.22;;;;;;;;;;8290651;28;20413;-66
2021/06/02 20:46:13;;;;;;;46.97;15.45;;;;;;;;;;8290919;28;20485;-65
2021/06/02 20:50:18;;;;;;;100.68;28.88;;;;;;;;;;8290700;28;20375;-65
2021/06/02 20:54:22;;;;;;;14.23;6.35;;;;;;;;;;8289871;28;20413;-64
2021/06/02 20:58:27;;;;;;;21.55;8.50;;;;;;;;;;8292593;28;20406;-65
2021/06/02 21:02:35;;;;;;;63.72;19.20;;;;;;;;;;8288197;28;20546;-66
2021/06/02 21:06:40;;;;;;;85.72;28.83;;;;;;;;;;8290265;28;20386;-65
2021/06/02 21:10:43;;;;;;;26.77;9.43;;;;;;;;;;8287981;28;20460;-65
2021/06/02 21:14:48;;;;;;;11.85;5.43;;;;;;;;;;8289948;28;20052;-66
2021/06/02 21:18:52;;;;;;;11.25;5.25;;;;;;;;;;8291173;28;20446;-64
2021/06/02 21:22:57;;;;;;;11.18;5.15;;;;;;;;;;8289607;28;20095;-65
2021/06/02 21:27:03;;;;;;;11.52;5.93;;;;;;;;;;8289381;28;20471;-65
2021/06/02 21:31:08;;;;;;;13.65;6.45;;;;;;;;;;8290904;28;20071;-65
2021/06/02 21:35:12;;;;;;;13.52;6.95;;;;;;;;;;8290504;28;20455;-64
2021/06/02 21:39:19;;;;;;;15.70;7.43;;;;;;;;;;8295195;28;20363;-66
2021/06/02 21:43:24;;;;;;;17.67;9.82;;;;;;;;;;8295935;28;20075;-65
2021/06/02 21:47:29;;;;;;;16.25;7.25;;;;;;;;;;8296399;28;20491;-64
2021/06/02 21:51:34;;;;;;;11.93;5.85;;;;;;;;;;8296184;28;20478;-65
2021/06/02 21:55:39;;;;;;;17.88;8.55;;;;;;;;;;8294735;28;20463;-65
2021/06/02 21:59:44;;;;;;;19.98;9.20;;;;;;;;;;8295322;28;20352;-65
2021/06/02 22:03:48;;;;;;;14.88;6.93;;;;;;;;;;8295510;28;20452;-64
2021/06/02 22:07:53;;;;;;;16.25;7.68;;;;;;;;;;8296037;28;20052;-65
2021/06/02 22:11:59;;;;;;;16.58;7.43;;;;;;;;;;8294761;28;20106;-65
2021/06/02 22:16:05;;;;;;;10.25;5.45;;;;;;;;;;8293836;28;20483;-64
2021/06/02 22:20:11;;;;;;;14.38;5.40;;;;;;;;;;8294351;28;20367;-64
2021/06/02 22:24:16;;;;;;;8.32;4.40;;;;;;;;;;8277520;28;20471;-64
2021/06/02 22:28:22;;;;;;;9.40;4.38;;;;;;;;;;8294754;28;20461;-65
2021/06/02 22:32:27;;;;;;;8.07;4.07;;;;;;;;;;8293809;28;20349;-64
2021/06/02 22:36:32;;;;;;;8.40;4.28;;;;;;;;;;8294095;28;20048;-65
2021/06/02 22:40:38;;;;;;;13.75;5.20;;;;;;;;;;8293626;28;20542;-65
2021/06/02 22:44:42;;;;;;;10.60;5.57;;;;;;;;;;8293517;28;20379;-64
2021/06/02 22:48:47;;;;;;;14.00;6.15;;;;;;;;;;8294490;28;20448;-65
2021/06/02 22:52:51;;;;;;;16.70;6.47;;;;;;;;;;8293536;28;20362;-65
2021/06/02 22:56:56;;;;;;;12.10;5.70;;;;;;;;;;8293868;28;20056;-65
2021/06/02 23:01:01;;;;;;;14.15;5.47;;;;;;;;;;8292935;28;20482;-65
2021/06/02 23:05:06;;;;;;;9.70;4.90;;;;;;;;;;8294061;28;20387;-65
2021/06/02 23:09:10;;;;;;;12.57;4.60;;;;;;;;;;8292878;28;20585;-64
2021/06/02 23:13:16;;;;;;;8.85;4.47;;;;;;;;;;8292790;28;20472;-65
2021/06/02 23:17:21;;;;;;;6.95;4.00;;;;;;;;;;8293161;28;20463;-65
2021/06/02 23:21:25;;;;;;;9.40;4.38;;;;;;;;;;8293792;28;20367;-65
2021/06/02 23:25:31;;;;;;;7.85;4.15;;;;;;;;;;8291535;28;20490;-65
2021/06/02 23:29:36;;;;;;;6.50;3.80;;;;;;;;;;8291245;28;20368;-65
2021/06/02 23:33:42;;;;;;;9.65;4.22;;;;;;;;;;8291316;28;20479;-65
2021/06/02 23:37:48;;;;;;;15.48;6.40;;;;;;;;;;8291234;28;20044;-65
2021/06/02 23:41:55;;;;;;;11.45;4.30;;;;;;;;;;8291640;28;20351;-65
2021/06/02 23:46:00;;;;;;;19.85;9.82;;;;;;;;;;8291147;28;20478;-64
2021/06/02 23:50:13;;;;;;;10.48;5.22;;;;;;;;;;8291736;28;20461;-65
2021/06/02 23:54:18;;;;;;;12.98;5.40;;;;;;;;;;8291881;28;20474;-64
2021/06/02 23:58:23;;;;;;;7.88;4.05;;;;;;;;;;8289769;28;20399;-64
